map of CAL home
CAL - Airport
Location
City:  Campbeltown, Argyll, Scotland, United Kingdom
Near (Alt.):Machrihanish
Name:Campbeltown Airport
Old (Alt.):RAF Machrihanish
ICAO:EGEC
IATA:CAL

Details
Type:Airport (Aerodrome, Airfield)
Use:Public/Civil
Latitude:5526'14"N (55.437222)
Longitude:541'11"W (-5.686388)
Datum:WGS 1984
Elevation:42 ft (13 m)
Variation:3.18W (WMM2015 magnetic declination)
0.17 annual change
Runways:1
Longest:10003 × 151 ft (3049 × 46 m), paved

Time
Time Zone:UTC+0 (DST+1)
Local Time:

Weather
METAR:EGEC 241420Z 26018KT 9999 FEW018 BKN047 04/02 Q1007

Related Locations
Nearby:
Farthest:SZS: 11783 mi / 18963 km
Ryan's Creek, Stewart Island, STL, NZ

Find:

   beyond  
but within

Other Information
Maps:
NOTAMs:
Links:
Sources:

  
flag of United Kingdom
flag of Scotland
  

Sectional Chart

Flight Planning
at skyvector.com

Satellite Image

Google Maps Satellite view

 

Copyright © 2004-2017 Karl L. Swartz. All rights reserved.
The Great Circle Mapper name and logo are trademarks of the Great Circle Mapper.
All other trademarks mentioned herein belong to their respective owners.
Please see credits for attibutions and further copyright information.

  Follow gcmap on Facebook Follow gcmap on Twitter Follow gcmap on Google+ GCmap on LinkedIn

hCard Microformat

Geo Microformat